createdAt,value
2022-12-17T00:02:32.810Z,46.50
2022-12-17T00:05:17.940Z,45.50
2022-12-17T00:08:02.656Z,50.75
2022-12-17T00:10:47.215Z,47.60
2022-12-17T00:13:41.330Z,48.33
2022-12-17T00:16:26.878Z,47.78
2022-12-17T00:19:11.647Z,50.00
2022-12-17T00:21:56.482Z,48.78
2022-12-17T00:24:40.862Z,51.40
2022-12-17T00:27:25.540Z,47.20
2022-12-17T00:30:10.263Z,50.38
2022-12-17T00:32:55.092Z,49.78
2022-12-17T00:35:39.589Z,49.57
2022-12-17T00:38:24.483Z,48.03
2022-12-17T00:41:10.591Z,49.90
2022-12-17T00:44:12.128Z,47.63
2022-12-17T00:46:57.132Z,47.63
2022-12-17T00:49:43.433Z,50.40
2022-12-17T00:52:28.162Z,46.50
2022-12-17T00:55:13.139Z,44.33
2022-12-17T00:57:57.911Z,47.63
2022-12-17T01:00:42.544Z,49.90
2022-12-17T01:03:30.514Z,46.20
2022-12-17T01:06:15.704Z,45.20
2022-12-17T01:09:00.650Z,47.72
2022-12-17T01:12:02.175Z,45.10
2022-12-17T01:14:47.049Z,43.70
2022-12-17T01:17:31.660Z,43.42
2022-12-17T01:20:16.657Z,44.78
2022-12-17T01:23:11.972Z,40.88
2022-12-17T01:25:56.574Z,43.00
2022-12-17T01:28:42.913Z,40.67
2022-12-17T01:31:34.349Z,40.40
2022-12-17T01:34:19.944Z,44.13
2022-12-17T01:37:05.395Z,40.15
2022-12-17T01:39:49.942Z,39.15
2022-12-17T01:42:34.568Z,41.47
2022-12-17T01:45:21.345Z,39.72
2022-12-17T01:48:17.817Z,40.13
2022-12-17T01:51:07.318Z,43.72
2022-12-17T01:53:56.961Z,39.35
2022-12-17T01:56:43.103Z,39.03
2022-12-17T01:59:28.834Z,38.72
2022-12-17T02:04:58.542Z,36.88
2022-12-17T02:07:52.237Z,37.67
2022-12-17T02:11:03.244Z,38.50
2022-12-17T02:13:55.631Z,36.17
2022-12-17T02:16:43.578Z,38.17
2022-12-17T02:19:41.636Z,35.25
2022-12-17T02:22:54.964Z,36.03
2022-12-17T02:26:15.354Z,35.95
2022-12-17T02:29:06.953Z,33.42
2022-12-17T02:31:53.407Z,36.67
2022-12-17T02:34:38.287Z,34.05
2022-12-17T02:37:23.212Z,34.60
2022-12-17T02:40:08.547Z,38.00
2022-12-17T02:45:39.566Z,35.25
2022-12-17T02:51:11.676Z,31.70
2022-12-17T02:54:05.120Z,33.97
2022-12-17T02:56:50.568Z,36.00
2022-12-17T02:59:36.010Z,33.95
2022-12-17T03:02:28.543Z,34.05
2022-12-17T03:05:42.694Z,36.50
2022-12-17T03:08:18.447Z,31.45
2022-12-17T03:11:03.141Z,32.38
2022-12-17T03:13:49.245Z,33.08
2022-12-17T03:16:37.969Z,32.42
2022-12-17T03:19:22.894Z,31.60
2022-12-17T03:22:07.719Z,33.10
2022-12-17T03:24:52.301Z,31.20
2022-12-17T03:27:37.220Z,33.10
2022-12-17T03:30:22.185Z,34.70
2022-12-17T03:33:06.763Z,34.93
2022-12-17T03:38:37.522Z,31.80
2022-12-17T03:41:22.278Z,30.98
2022-12-17T03:44:06.836Z,31.52
2022-12-17T03:46:51.780Z,31.83
2022-12-17T03:49:36.238Z,31.48
2022-12-17T03:52:21.862Z,32.35
2022-12-17T03:55:06.321Z,30.92
2022-12-17T03:57:50.949Z,32.30
2022-12-17T04:00:35.630Z,31.42
2022-12-17T04:03:20.495Z,32.10
2022-12-17T04:06:05.268Z,32.03
2022-12-17T04:08:49.768Z,32.20
2022-12-17T04:11:34.432Z,31.13
2022-12-17T04:14:19.126Z,30.52
2022-12-17T04:17:04.020Z,31.38
2022-12-17T04:19:48.576Z,31.80
2022-12-17T04:22:33.288Z,30.48
2022-12-17T04:25:18.245Z,31.00
2022-12-17T04:28:03.500Z,26.48
2022-12-17T04:30:48.273Z,31.38
2022-12-17T04:33:33.169Z,30.37
2022-12-17T04:36:17.941Z,31.20
2022-12-17T04:39:02.516Z,29.67
2022-12-17T04:41:47.160Z,30.80
2022-12-17T04:44:31.964Z,30.63
2022-12-17T04:47:16.901Z,30.03
2022-12-17T04:50:01.485Z,28.60
2022-12-17T04:52:46.203Z,29.15
2022-12-17T19:52:17.316Z,24.40
2022-12-17T19:54:43.935Z,23.15
2022-12-17T19:57:10.231Z,22.55
2022-12-17T19:59:36.359Z,26.02
2022-12-17T20:02:03.923Z,26.17
2022-12-17T20:04:30.881Z,27.67
2022-12-17T20:06:57.023Z,27.60
2022-12-17T20:09:23.216Z,26.50
2022-12-17T20:11:49.371Z,25.52
2022-12-17T20:14:28.382Z,27.73
2022-12-17T20:16:56.738Z,23.95
2022-12-17T20:19:25.585Z,24.85
2022-12-17T20:21:52.086Z,24.42
2022-12-17T20:24:18.230Z,27.08
2022-12-17T20:26:46.256Z,25.73
2022-12-17T20:29:12.861Z,25.40
2022-12-17T20:31:39.096Z,24.27
2022-12-17T20:34:06.993Z,24.58
2022-12-17T20:36:33.326Z,25.83
2022-12-17T20:38:59.777Z,25.73
2022-12-17T20:41:31.454Z,25.55
2022-12-17T20:43:58.515Z,25.98
2022-12-17T20:46:25.663Z,25.30
2022-12-17T20:48:52.489Z,23.98
2022-12-17T20:51:25.096Z,22.40
2022-12-17T20:53:52.492Z,22.63
2022-12-17T20:56:23.044Z,23.77
2022-12-17T20:58:55.970Z,23.15
2022-12-17T21:01:24.370Z,22.55
2022-12-17T21:03:52.347Z,23.92
2022-12-17T21:06:29.296Z,21.75
2022-12-17T21:08:56.201Z,24.10
2022-12-17T21:11:26.001Z,23.90
2022-12-17T21:13:53.796Z,22.42
2022-12-17T21:16:28.988Z,22.55
2022-12-17T21:18:57.251Z,22.67
2022-12-17T21:21:26.813Z,22.55
2022-12-17T21:23:53.179Z,23.35
2022-12-17T21:26:22.284Z,22.33
2022-12-17T21:28:51.718Z,22.33
2022-12-17T21:31:21.679Z,23.88
2022-12-17T21:33:49.606Z,23.10
2022-12-17T21:36:17.784Z,23.92
2022-12-17T21:38:44.359Z,23.73
2022-12-17T21:41:13.376Z,21.77
2022-12-17T21:43:40.129Z,23.85
2022-12-17T21:46:08.509Z,21.15
2022-12-17T21:48:41.562Z,20.10
2022-12-17T21:51:10.311Z,22.63
2022-12-17T21:53:38.825Z,20.20
2022-12-17T21:56:07.596Z,19.80
2022-12-17T21:58:34.969Z,19.58
2022-12-17T22:01:26.279Z,20.27
2022-12-17T22:03:54.746Z,21.23
2022-12-17T22:06:24.186Z,21.52
2022-12-17T22:08:58.127Z,19.95
2022-12-17T22:11:27.441Z,20.77
2022-12-17T22:14:08.252Z,19.00
2022-12-17T22:16:42.581Z,20.92
2022-12-17T22:19:14.556Z,25.35
2022-12-17T22:21:43.313Z,21.40
2022-12-17T22:24:14.963Z,20.23
2022-12-17T22:26:41.662Z,21.88
2022-12-17T22:29:07.775Z,21.63
2022-12-17T22:31:52.628Z,21.35
2022-12-17T22:35:20.853Z,20.80
2022-12-17T22:39:52.877Z,21.55
2022-12-17T22:43:32.173Z,19.90
2022-12-17T22:44:44.417Z,20.98
2022-12-17T22:45:42.545Z,21.15
2022-12-17T22:48:10.314Z,21.35
2022-12-17T22:50:42.605Z,22.35
2022-12-17T22:53:24.107Z,20.50
2022-12-17T22:55:51.755Z,22.98
2022-12-17T22:58:18.592Z,21.67
2022-12-17T23:00:44.830Z,22.67
2022-12-17T23:03:11.073Z,20.30
2022-12-17T23:05:37.332Z,22.85
2022-12-17T23:08:03.485Z,21.35
2022-12-17T23:10:29.618Z,25.30
2022-12-17T23:12:56.107Z,22.95
2022-12-17T23:15:25.972Z,22.20
2022-12-17T23:17:54.069Z,22.40
2022-12-17T23:20:20.465Z,22.35
2022-12-17T23:22:46.991Z,22.33
2022-12-17T23:25:13.819Z,23.27
2022-12-17T23:27:44.635Z,23.75
2022-12-17T23:30:12.043Z,21.23
2022-12-17T23:32:38.413Z,21.70
2022-12-17T23:35:05.153Z,19.65
2022-12-17T23:37:35.182Z,18.77
2022-12-17T23:40:06.060Z,19.55
2022-12-17T23:42:32.183Z,19.23
2022-12-17T23:44:58.283Z,18.50
2022-12-17T23:47:24.983Z,18.88
2022-12-17T23:49:51.092Z,18.15
2022-12-17T23:52:17.256Z,17.35
2022-12-17T23:54:43.360Z,17.80
2022-12-17T23:57:09.488Z,18.40
2022-12-17T23:59:35.662Z,18.17
